createdAt,value
2023-06-03T00:00:26.182Z,18.00
2023-06-03T00:02:57.852Z,13.13
2023-06-03T00:05:24.999Z,13.98
2023-06-03T00:07:52.010Z,14.10
2023-06-03T00:10:18.956Z,16.42
2023-06-03T00:12:46.831Z,17.58
2023-06-03T00:15:13.873Z,14.38
2023-06-03T00:17:40.864Z,16.02
2023-06-03T00:20:08.416Z,14.50
2023-06-03T00:22:38.435Z,14.32
2023-06-03T00:25:08.531Z,15.70
2023-06-03T00:27:38.766Z,16.92
2023-06-03T00:30:06.780Z,20.38
2023-06-03T00:32:34.365Z,15.38
2023-06-03T00:35:01.336Z,15.43
2023-06-03T00:37:28.718Z,17.15
2023-06-03T00:39:56.461Z,15.52
2023-06-03T00:42:23.404Z,14.70
2023-06-03T00:44:50.558Z,22.13
2023-06-03T00:47:18.039Z,14.98
2023-06-03T00:49:46.122Z,16.40
2023-06-03T00:52:13.031Z,18.88
2023-06-03T00:54:39.943Z,18.05
2023-06-03T00:57:07.077Z,15.32
2023-06-03T00:59:34.079Z,17.92
2023-06-03T01:02:01.180Z,18.58
2023-06-03T01:04:29.624Z,15.32
2023-06-03T01:07:17.986Z,19.63
2023-06-03T01:13:18.596Z,17.20
2023-06-03T01:15:46.057Z,15.38
2023-06-03T01:18:13.078Z,18.02
2023-06-03T01:20:41.987Z,13.63
2023-06-03T01:23:16.713Z,15.60
2023-06-03T01:25:43.734Z,14.73
2023-06-03T01:28:10.651Z,18.67
2023-06-03T01:30:37.947Z,17.00
2023-06-03T01:33:04.904Z,21.10
2023-06-03T01:35:32.103Z,16.70
2023-06-03T01:37:59.032Z,15.13
2023-06-03T01:40:26.285Z,16.67
2023-06-03T01:42:53.256Z,17.73
2023-06-03T01:45:20.938Z,21.95
2023-06-03T01:47:49.398Z,16.75
2023-06-03T01:50:19.421Z,17.70
2023-06-03T01:52:46.417Z,15.57
2023-06-03T01:55:13.518Z,20.38
2023-06-03T01:57:41.004Z,17.15
2023-06-03T02:00:08.563Z,19.70
2023-06-03T02:02:41.122Z,14.55
2023-06-03T02:05:08.563Z,19.70
2023-06-03T02:07:36.094Z,16.00
2023-06-03T02:10:06.082Z,19.67
2023-06-03T02:12:33.180Z,24.40
2023-06-03T02:15:00.225Z,20.30
2023-06-03T02:17:28.241Z,20.45
2023-06-03T02:19:56.191Z,19.60
2023-06-03T02:22:27.643Z,19.20
2023-06-03T02:24:58.611Z,17.10
2023-06-03T02:27:29.127Z,16.65
2023-06-03T02:29:56.262Z,15.27
2023-06-03T02:32:23.659Z,19.98
2023-06-03T02:34:54.341Z,17.30
2023-06-03T02:37:21.510Z,23.55
2023-06-03T02:39:51.793Z,19.52
2023-06-03T02:42:18.830Z,18.38
2023-06-03T02:44:45.751Z,15.90
2023-06-03T02:50:14.555Z,16.08
2023-06-03T02:52:41.457Z,17.63
2023-06-03T02:55:09.137Z,24.42
2023-06-03T02:57:36.376Z,16.00
2023-06-03T03:00:12.555Z,19.63
2023-06-03T03:02:44.253Z,21.30
2023-06-03T03:05:12.217Z,20.25
2023-06-03T03:07:41.859Z,17.70
2023-06-03T03:10:09.216Z,18.38
2023-06-03T03:12:39.289Z,18.08
2023-06-03T03:15:08.644Z,22.92
2023-06-03T03:17:39.255Z,16.50
2023-06-03T03:20:09.441Z,20.55
2023-06-03T03:22:41.048Z,17.33
2023-06-03T03:25:08.972Z,17.73
2023-06-03T03:27:36.928Z,18.20
2023-06-03T03:30:04.439Z,17.23
2023-06-03T03:32:33.267Z,21.52
2023-06-03T03:35:14.448Z,17.77
2023-06-03T03:40:18.845Z,16.65
2023-06-03T03:42:56.113Z,16.45
2023-06-03T03:45:36.904Z,17.55
2023-06-03T03:48:06.277Z,18.80
2023-06-03T03:50:44.461Z,19.13
2023-06-03T03:53:14.653Z,18.33
2023-06-03T03:55:46.876Z,15.02
2023-06-03T03:58:28.504Z,18.52
2023-06-03T04:01:02.500Z,22.55
2023-06-03T04:03:36.988Z,18.95
2023-06-03T04:06:04.495Z,25.67
2023-06-03T04:08:46.605Z,20.33
2023-06-03T04:11:27.126Z,21.90
2023-06-03T04:13:55.240Z,17.83
2023-06-03T04:16:39.806Z,20.02
2023-06-03T04:19:07.561Z,19.38
2023-06-03T04:21:38.274Z,19.90
2023-06-03T04:24:06.865Z,21.23
2023-06-03T04:26:35.386Z,27.45
2023-06-03T04:29:03.582Z,19.13
2023-06-03T04:31:30.666Z,19.20
2023-06-03T04:33:57.708Z,23.80
2023-06-03T04:36:25.790Z,23.80
2023-06-03T04:38:52.884Z,22.30
2023-06-03T04:41:20.388Z,22.90
2023-06-03T04:43:49.053Z,20.02
2023-06-03T04:46:17.316Z,21.58
2023-06-03T04:48:46.556Z,23.35
2023-06-03T04:51:14.289Z,19.42
2023-06-03T04:53:42.919Z,21.40
2023-06-03T04:56:12.325Z,24.33
2023-06-03T04:58:41.332Z,25.38
2023-06-03T05:01:14.188Z,19.17
2023-06-03T05:03:42.213Z,18.35
2023-06-03T05:06:11.704Z,22.55
2023-06-03T05:08:41.437Z,20.88
2023-06-03T05:11:08.880Z,21.70
2023-06-03T05:13:35.848Z,21.40
2023-06-03T05:16:02.829Z,20.00
2023-06-03T05:18:31.453Z,24.42
2023-06-03T05:20:58.385Z,22.10
2023-06-03T05:23:25.319Z,21.15
2023-06-03T05:25:52.436Z,19.17
2023-06-03T05:28:19.574Z,18.75
2023-06-03T05:30:46.612Z,21.88
2023-06-03T05:33:27.082Z,20.02
2023-06-03T05:38:23.686Z,21.98
2023-06-03T05:40:50.930Z,24.17
2023-06-03T05:43:21.330Z,20.10
2023-06-03T05:45:48.367Z,20.83
2023-06-03T05:48:15.352Z,20.65
2023-06-03T05:50:52.933Z,23.27
2023-06-03T05:53:22.627Z,24.23
2023-06-03T05:55:50.625Z,23.27
2023-06-03T05:58:18.870Z,21.08
2023-06-03T06:00:46.501Z,26.77
2023-06-03T06:03:14.572Z,19.23
2023-06-03T06:05:41.975Z,21.10
2023-06-03T06:08:09.071Z,20.38
2023-06-03T06:10:36.637Z,23.23
2023-06-03T06:13:03.961Z,20.95
2023-06-03T06:15:31.966Z,18.77
2023-06-03T06:18:00.558Z,23.02
2023-06-03T06:20:28.050Z,20.50
2023-06-03T06:22:55.446Z,21.63
2023-06-03T06:25:22.772Z,24.52
2023-06-03T06:27:51.577Z,23.60
2023-06-03T06:30:19.577Z,21.85
2023-06-03T06:32:50.953Z,16.48
2023-06-03T06:35:22.097Z,22.10
2023-06-03T06:37:50.971Z,18.80
2023-06-03T06:40:22.795Z,25.27
2023-06-03T06:42:50.276Z,24.58
2023-06-03T06:45:35.478Z,21.95
2023-06-03T06:48:08.722Z,17.95
2023-06-03T06:50:54.580Z,22.02
2023-06-03T06:53:25.603Z,23.75
2023-06-03T06:55:57.861Z,21.65
2023-06-03T06:58:38.412Z,19.42
2023-06-03T07:01:08.066Z,20.98
2023-06-03T07:03:40.119Z,21.35
2023-06-03T07:06:07.453Z,20.35
2023-06-03T07:08:35.970Z,20.75
2023-06-03T07:11:04.923Z,23.05
2023-06-03T07:13:43.471Z,19.83
2023-06-03T07:16:13.073Z,18.83
2023-06-03T07:18:40.253Z,19.13
2023-06-03T07:21:07.774Z,20.77
2023-06-03T07:23:34.957Z,23.63
2023-06-03T07:26:03.486Z,19.90
2023-06-03T07:28:34.168Z,20.35
2023-06-03T07:31:08.649Z,30.38
2023-06-03T07:33:51.562Z,22.52
2023-06-03T07:36:22.482Z,21.17
2023-06-03T07:39:07.902Z,23.98
2023-06-03T07:41:53.901Z,19.65
2023-06-03T07:44:47.059Z,18.25
2023-06-03T07:47:14.909Z,17.25
2023-06-03T07:49:45.101Z,17.80
2023-06-03T07:52:15.531Z,15.48
2023-06-03T07:54:42.579Z,22.50
2023-06-03T07:57:09.615Z,18.20
2023-06-03T07:59:36.748Z,19.65
2023-06-03T08:02:03.933Z,19.10
2023-06-03T08:04:32.598Z,17.85
2023-06-03T08:07:01.643Z,23.75
2023-06-03T08:09:34.880Z,17.60
2023-06-03T08:12:06.406Z,19.10
2023-06-03T08:14:38.768Z,18.48
2023-06-03T08:17:15.293Z,20.15
2023-06-03T08:19:45.268Z,18.75
2023-06-03T08:22:30.582Z,19.40
2023-06-03T08:24:57.647Z,19.73
2023-06-03T08:27:24.634Z,17.77
2023-06-03T08:29:51.624Z,19.63
2023-06-03T08:32:18.580Z,18.55
2023-06-03T08:34:45.517Z,17.83
2023-06-03T08:37:12.477Z,21.63
2023-06-03T08:39:39.872Z,19.73
2023-06-03T08:42:09.829Z,17.85
2023-06-03T08:44:43.639Z,17.05
2023-06-03T08:47:15.013Z,17.60
2023-06-03T08:49:55.530Z,15.53
2023-06-03T08:52:22.482Z,19.13
2023-06-03T08:54:49.382Z,15.55
2023-06-03T08:57:20.509Z,19.85
2023-06-03T08:59:48.714Z,18.13
2023-06-03T09:02:15.642Z,15.95
2023-06-03T09:04:42.722Z,18.23
2023-06-03T09:07:11.164Z,17.75
2023-06-03T09:09:38.336Z,16.30
2023-06-03T09:12:05.534Z,15.55
2023-06-03T09:14:32.469Z,18.42
2023-06-03T09:17:00.042Z,15.50
2023-06-03T09:19:30.576Z,14.98
2023-06-03T09:21:57.712Z,17.70
2023-06-03T09:24:24.805Z,15.18
2023-06-03T09:26:52.901Z,16.25
2023-06-03T09:29:21.704Z,14.50
2023-06-03T09:31:51.609Z,15.05
2023-06-03T09:34:18.769Z,14.18
2023-06-03T09:36:49.143Z,14.85
2023-06-03T09:39:19.270Z,16.88
2023-06-03T09:41:46.386Z,14.25
2023-06-03T09:44:13.525Z,14.77
2023-06-03T09:46:41.673Z,14.45
2023-06-03T09:49:12.859Z,14.60
2023-06-03T09:51:43.591Z,14.70
2023-06-03T09:54:13.135Z,15.50
2023-06-03T09:56:40.122Z,15.02
2023-06-03T09:59:22.670Z,16.65
2023-06-03T10:01:50.754Z,18.13
2023-06-03T10:04:38.611Z,15.48
2023-06-03T10:07:13.252Z,19.38
2023-06-03T10:09:41.588Z,17.30
2023-06-03T10:12:08.855Z,16.27
2023-06-03T10:14:35.845Z,13.15
2023-06-03T10:17:08.994Z,18.73
2023-06-03T10:19:36.552Z,14.52
2023-06-03T10:22:07.177Z,13.40
2023-06-03T10:24:43.968Z,15.98
2023-06-03T10:27:11.515Z,14.55
2023-06-03T10:29:38.666Z,12.75
2023-06-03T10:32:09.675Z,15.48
2023-06-03T10:34:38.299Z,17.45
2023-06-03T10:37:07.276Z,14.90
2023-06-03T10:39:34.193Z,14.60
2023-06-03T10:42:02.851Z,17.60
2023-06-03T10:44:29.998Z,14.05
2023-06-03T10:46:59.906Z,12.60
2023-06-03T10:49:29.727Z,14.55
2023-06-03T10:52:30.792Z,16.05
2023-06-03T10:55:08.756Z,14.93
2023-06-03T10:57:47.669Z,16.27
2023-06-03T11:00:17.423Z,15.35
2023-06-03T11:03:06.458Z,16.83
2023-06-03T11:05:33.633Z,19.02
2023-06-03T11:08:00.678Z,16.80
2023-06-03T11:10:40.718Z,15.30
2023-06-03T11:13:08.017Z,15.25
2023-06-03T11:16:10.650Z,12.20
2023-06-03T11:18:37.696Z,14.77
2023-06-03T11:21:04.976Z,15.73
2023-06-03T11:23:45.638Z,15.05
2023-06-03T11:26:32.914Z,20.42
2023-06-03T11:29:00.377Z,15.75
2023-06-03T11:31:28.665Z,17.77
2023-06-03T11:34:24.421Z,15.15
2023-06-03T11:36:52.655Z,14.73
2023-06-03T11:39:20.391Z,14.40
2023-06-03T11:42:10.083Z,18.58
2023-06-03T11:44:38.756Z,14.63
2023-06-03T11:47:05.957Z,14.32
2023-06-03T11:49:35.166Z,15.23
2023-06-03T11:52:02.439Z,12.13
2023-06-03T11:54:29.489Z,11.32
2023-06-03T11:56:58.057Z,12.18
2023-06-03T11:59:43.219Z,11.05
2023-06-03T12:02:10.551Z,13.95
2023-06-03T12:04:38.032Z,13.02
2023-06-03T12:07:16.669Z,11.02
2023-06-03T12:09:43.728Z,11.50
2023-06-03T12:12:12.108Z,13.65
2023-06-03T12:14:39.985Z,15.13
2023-06-03T12:17:15.037Z,14.52
2023-06-03T12:19:43.596Z,12.48
2023-06-03T12:22:10.633Z,13.20
2023-06-03T12:24:40.386Z,10.80
2023-06-03T12:27:16.940Z,10.20
2023-06-03T12:29:48.949Z,8.48
2023-06-03T12:32:16.208Z,12.40
2023-06-03T12:34:43.662Z,10.38
2023-06-03T12:37:10.756Z,11.02
2023-06-03T12:39:51.671Z,10.65
2023-06-03T12:42:19.568Z,10.77
2023-06-03T12:44:46.488Z,12.13
2023-06-03T12:47:15.670Z,12.95
2023-06-03T12:49:43.756Z,14.02
2023-06-03T12:52:20.434Z,11.52
2023-06-03T12:54:49.288Z,10.00
2023-06-03T12:57:16.715Z,13.38
2023-06-03T13:00:00.397Z,12.32
2023-06-03T13:02:28.368Z,13.93
2023-06-03T13:04:55.393Z,11.48
2023-06-03T13:07:22.686Z,11.60
2023-06-03T13:09:49.628Z,10.45
2023-06-03T13:12:16.582Z,10.02
2023-06-03T13:14:45.067Z,10.63
2023-06-03T13:17:12.207Z,10.48
2023-06-03T13:19:39.471Z,9.55
2023-06-03T13:22:08.156Z,10.95
2023-06-03T13:24:36.123Z,10.82
2023-06-03T13:27:04.111Z,10.93
2023-06-03T13:29:31.275Z,12.98
2023-06-03T13:31:58.267Z,9.07
2023-06-03T13:34:25.207Z,14.68
2023-06-03T13:36:52.154Z,10.23
2023-06-03T13:39:23.185Z,11.73
2023-06-03T13:41:51.486Z,11.07
2023-06-03T13:44:18.610Z,10.32
2023-06-03T13:46:45.861Z,9.30
2023-06-03T13:49:13.128Z,10.32
2023-06-03T13:51:40.618Z,9.48
2023-06-03T13:54:07.679Z,9.20
2023-06-03T13:56:34.711Z,9.63
2023-06-03T13:59:04.054Z,9.02
2023-06-03T14:01:34.032Z,8.73
2023-06-03T14:04:01.069Z,10.27
2023-06-03T14:06:28.127Z,9.10
2023-06-03T14:09:58.012Z,9.63
2023-06-03T14:12:24.988Z,9.40
2023-06-03T14:14:51.854Z,8.65
2023-06-03T14:17:18.818Z,8.52
2023-06-03T14:19:45.785Z,8.65
2023-06-03T14:22:12.648Z,7.93
2023-06-03T14:24:39.576Z,9.23
2023-06-03T14:27:06.621Z,7.88
2023-06-03T14:29:33.628Z,9.60
2023-06-03T14:32:00.765Z,9.05
2023-06-03T14:34:27.574Z,8.18
2023-06-03T14:36:54.494Z,10.07
2023-06-03T14:39:21.384Z,10.70
2023-06-03T14:41:48.419Z,8.98
2023-06-03T14:44:17.483Z,10.02
2023-06-03T14:46:44.648Z,8.23
2023-06-03T14:49:11.534Z,10.20
2023-06-03T14:51:38.512Z,6.75
2023-06-03T14:54:05.604Z,8.45
2023-06-03T14:56:32.495Z,9.15
2023-06-03T14:58:59.437Z,9.68
2023-06-03T15:01:28.876Z,8.25
2023-06-03T15:03:56.224Z,7.72
2023-06-03T15:06:23.173Z,9.23
2023-06-03T15:08:50.064Z,12.77
2023-06-03T15:11:17.012Z,8.48
2023-06-03T15:13:44.353Z,9.90
2023-06-03T15:16:11.809Z,8.63
2023-06-03T15:18:38.738Z,9.57
2023-06-03T15:21:06.043Z,8.80
2023-06-03T15:23:32.879Z,8.90
2023-06-03T15:26:00.072Z,9.20
2023-06-03T15:28:27.215Z,9.20
2023-06-03T15:30:54.095Z,7.43
2023-06-03T15:33:21.018Z,9.27
2023-06-03T15:35:48.012Z,8.85
2023-06-03T15:38:14.974Z,8.93
2023-06-03T15:40:41.899Z,9.13
2023-06-03T15:43:08.755Z,9.45
2023-06-03T15:45:35.700Z,8.27
2023-06-03T15:48:02.577Z,7.95
2023-06-03T15:50:29.706Z,8.77
2023-06-03T15:52:56.553Z,10.75
2023-06-03T15:55:23.411Z,9.98
2023-06-03T15:57:50.362Z,9.30
2023-06-03T16:00:17.529Z,8.50
2023-06-03T16:02:44.393Z,9.13
2023-06-03T16:05:11.304Z,8.45
2023-06-03T16:07:38.270Z,9.10
2023-06-03T16:10:05.926Z,8.85
2023-06-03T16:12:32.832Z,7.82
2023-06-03T16:14:59.740Z,9.02
2023-06-03T16:17:26.938Z,9.40
2023-06-03T16:19:53.954Z,7.38
2023-06-03T16:22:20.910Z,7.68
2023-06-03T16:24:49.042Z,8.45
2023-06-03T16:27:16.454Z,7.63
2023-06-03T16:29:44.486Z,8.43
2023-06-03T16:32:11.648Z,7.78
2023-06-03T16:34:38.565Z,9.00
2023-06-03T16:37:05.584Z,7.85
2023-06-03T16:39:32.492Z,8.93
2023-06-03T16:41:59.312Z,7.57
2023-06-03T16:44:26.294Z,8.60
2023-06-03T16:46:53.118Z,6.50
2023-06-03T16:49:23.042Z,6.90
2023-06-03T16:51:50.775Z,8.10
2023-06-03T16:54:18.057Z,6.68
2023-06-03T16:56:45.026Z,6.32
2023-06-03T16:59:13.560Z,7.25
2023-06-03T17:01:41.295Z,7.97
2023-06-03T17:04:08.255Z,7.32
2023-06-03T17:06:35.180Z,8.98
2023-06-03T17:09:01.970Z,9.27
2023-06-03T17:11:29.739Z,7.15
2023-06-03T17:13:59.654Z,8.43
2023-06-03T17:16:26.718Z,9.70
2023-06-03T17:18:53.534Z,8.20
2023-06-03T17:21:23.180Z,6.25
2023-06-03T17:23:50.251Z,7.80
2023-06-03T17:26:17.310Z,7.32
2023-06-03T17:28:44.176Z,8.95
2023-06-03T17:31:11.201Z,5.88
2023-06-03T17:33:38.758Z,7.07
2023-06-03T17:36:05.828Z,8.75
2023-06-03T17:38:32.660Z,7.93
2023-06-03T17:40:59.690Z,7.70
2023-06-03T17:43:26.695Z,7.55
2023-06-03T17:45:53.806Z,6.72
2023-06-03T17:48:20.689Z,7.10
2023-06-03T17:50:47.569Z,8.73
2023-06-03T17:53:14.496Z,7.30
2023-06-03T17:55:41.451Z,7.63
2023-06-03T17:58:08.426Z,7.72
2023-06-03T18:00:35.425Z,7.55
2023-06-03T18:03:02.467Z,8.30
2023-06-03T18:05:29.422Z,6.53
2023-06-03T18:07:56.340Z,8.48
2023-06-03T18:10:23.190Z,7.82
2023-06-03T18:12:50.510Z,6.82
2023-06-03T18:15:17.320Z,9.48
2023-06-03T18:17:44.300Z,7.38
2023-06-03T18:20:11.448Z,7.95
2023-06-03T18:22:38.398Z,7.05
2023-06-03T18:25:06.025Z,9.93
2023-06-03T18:27:32.917Z,6.78
2023-06-03T18:29:59.745Z,7.38
2023-06-03T18:32:26.673Z,7.75
2023-06-03T18:34:53.627Z,6.47
2023-06-03T18:37:24.352Z,8.18
2023-06-03T18:39:53.083Z,8.48
2023-06-03T18:42:19.925Z,8.02
2023-06-03T18:44:46.822Z,7.60
2023-06-03T18:47:13.733Z,7.30
2023-06-03T18:49:40.711Z,7.43
2023-06-03T18:52:08.444Z,6.35
2023-06-03T18:54:35.461Z,8.13
2023-06-03T18:57:02.388Z,8.27
2023-06-03T18:59:29.617Z,8.73
2023-06-03T19:01:56.731Z,7.43
2023-06-03T19:04:24.939Z,6.97
2023-06-03T19:06:51.993Z,7.35
2023-06-03T19:09:19.075Z,8.52
2023-06-03T19:11:45.953Z,6.70
2023-06-03T19:14:13.245Z,6.88
2023-06-03T19:16:40.787Z,6.95
2023-06-03T19:19:07.898Z,7.60
2023-06-03T19:21:34.826Z,6.82
2023-06-03T19:24:01.800Z,7.65
2023-06-03T19:26:28.753Z,7.53
2023-06-03T19:28:57.856Z,7.20
2023-06-03T19:31:26.924Z,6.80
2023-06-03T19:33:55.217Z,6.30
2023-06-03T19:36:22.385Z,5.82
2023-06-03T19:38:49.246Z,7.50
2023-06-03T19:41:16.217Z,5.35
2023-06-03T19:43:43.340Z,8.23
2023-06-03T19:46:10.832Z,8.18
2023-06-03T19:48:38.297Z,6.43
2023-06-03T19:51:05.324Z,6.25
2023-06-03T19:53:32.391Z,8.50
2023-06-03T19:55:59.330Z,5.13
2023-06-03T19:58:26.304Z,6.70
2023-06-03T20:00:53.276Z,9.75
2023-06-03T20:03:20.331Z,6.28
2023-06-03T20:05:47.459Z,7.55
2023-06-03T20:08:14.450Z,7.75
2023-06-03T20:10:41.358Z,5.47
2023-06-03T20:13:13.040Z,5.57
2023-06-03T20:15:48.706Z,5.82
2023-06-03T20:18:15.739Z,6.75
2023-06-03T20:20:42.632Z,8.13
2023-06-03T20:23:09.512Z,6.65
2023-06-03T20:25:36.652Z,8.98
2023-06-03T20:28:04.827Z,8.48
2023-06-03T20:30:32.274Z,5.97
2023-06-03T20:33:00.585Z,6.25
2023-06-03T20:35:28.202Z,7.78
2023-06-03T20:37:55.338Z,6.50
2023-06-03T20:40:22.352Z,8.35
2023-06-03T20:42:49.257Z,7.13
2023-06-03T20:45:16.664Z,6.35
2023-06-03T20:47:43.565Z,8.63
2023-06-03T20:50:11.606Z,6.15
2023-06-03T20:52:38.556Z,7.40
2023-06-03T20:55:06.425Z,7.03
2023-06-03T20:57:33.436Z,7.15
2023-06-03T21:00:00.410Z,8.25
2023-06-03T21:02:27.296Z,7.82
2023-06-03T21:04:54.287Z,5.60
2023-06-03T21:07:21.498Z,7.93
2023-06-03T21:09:48.940Z,7.88
2023-06-03T21:12:17.582Z,6.90
2023-06-03T21:14:44.510Z,7.40
2023-06-03T21:17:11.400Z,7.55
2023-06-03T21:19:38.318Z,6.25
2023-06-03T21:22:05.607Z,7.63
2023-06-03T21:24:32.436Z,6.90
2023-06-03T21:27:01.073Z,5.70
2023-06-03T21:29:27.965Z,7.88
2023-06-03T21:31:57.530Z,7.22
2023-06-03T21:34:24.438Z,6.30
2023-06-03T21:36:51.317Z,6.97
2023-06-03T21:39:18.208Z,7.88
2023-06-03T21:41:45.101Z,6.70
2023-06-03T21:44:12.051Z,7.25
2023-06-03T21:46:40.028Z,7.72
2023-06-03T21:49:06.930Z,6.68
2023-06-03T21:51:34.192Z,7.32
2023-06-03T21:54:01.044Z,7.93
2023-06-03T21:56:30.108Z,5.80
2023-06-03T21:58:57.047Z,7.88
2023-06-03T22:01:27.962Z,6.32
2023-06-03T22:03:55.562Z,5.60
2023-06-03T22:06:22.516Z,5.95
2023-06-03T22:08:49.987Z,5.60
2023-06-03T22:11:16.992Z,6.10
2023-06-03T22:13:44.606Z,7.57
2023-06-03T22:16:11.734Z,7.38
2023-06-03T22:18:38.777Z,7.18
2023-06-03T22:21:06.193Z,6.53
2023-06-03T22:23:33.464Z,6.35
2023-06-03T22:26:00.581Z,7.90
2023-06-03T22:28:27.514Z,10.85
2023-06-03T22:30:54.828Z,8.90
2023-06-03T22:33:21.893Z,6.50
2023-06-03T22:35:49.033Z,7.78
2023-06-03T22:38:16.115Z,7.03
2023-06-03T22:40:49.189Z,7.35
2023-06-03T22:43:19.595Z,9.40
2023-06-03T22:45:46.763Z,8.30
2023-06-03T22:48:14.360Z,8.15
2023-06-03T22:50:41.616Z,8.63
2023-06-03T22:53:08.519Z,7.07
2023-06-03T22:55:35.465Z,6.80
2023-06-03T22:58:02.471Z,6.15
2023-06-03T23:00:29.460Z,7.13
2023-06-03T23:02:56.496Z,7.15
2023-06-03T23:05:23.738Z,6.97
2023-06-03T23:07:51.195Z,10.25
2023-06-03T23:10:18.252Z,8.43
2023-06-03T23:12:45.196Z,9.10
2023-06-03T23:15:12.978Z,10.38
2023-06-03T23:17:40.478Z,8.60
2023-06-03T23:20:28.252Z,8.40
2023-06-03T23:22:55.481Z,7.70
2023-06-03T23:25:22.460Z,7.88
2023-06-03T23:27:49.603Z,7.28
2023-06-03T23:30:16.494Z,7.63
2023-06-03T23:32:44.114Z,6.60
2023-06-03T23:35:11.678Z,8.40
2023-06-03T23:37:41.210Z,9.75
2023-06-03T23:40:09.244Z,10.13
2023-06-03T23:42:36.164Z,10.00
2023-06-03T23:45:03.156Z,8.75
2023-06-03T23:47:30.189Z,7.75
2023-06-03T23:49:57.112Z,7.78
2023-06-03T23:52:24.091Z,11.32
2023-06-03T23:54:51.033Z,13.20
2023-06-03T23:57:18.623Z,9.07
2023-06-03T23:59:45.603Z,11.30
